sensor_id;sensor_type;location;lat;lon;timestamp;pressure;altitude;pressure_sealevel;temperature;humidity
74079;BME280;62437;51.544;-3.276;2023-07-09T00:00:14;101128.05;;;12.08;72.50
74079;BME280;62437;51.544;-3.276;2023-07-09T00:02:36;101129.44;;;12.27;72.42
74079;BME280;62437;51.544;-3.276;2023-07-09T00:05:01;101133.12;;;11.93;72.00
74079;BME280;62437;51.544;-3.276;2023-07-09T00:07:28;101132.89;;;12.02;72.29
74079;BME280;62437;51.544;-3.276;2023-07-09T00:09:54;101138.75;;;12.29;72.18
74079;BME280;62437;51.544;-3.276;2023-07-09T00:12:18;101138.81;;;11.98;71.97
74079;BME280;62437;51.544;-3.276;2023-07-09T00:14:44;101132.11;;;12.24;72.13
74079;BME280;62437;51.544;-3.276;2023-07-09T00:17:12;101130.83;;;11.80;71.89
74079;BME280;62437;51.544;-3.276;2023-07-09T00:19:35;101130.06;;;11.74;72.53
74079;BME280;62437;51.544;-3.276;2023-07-09T00:22:00;101129.75;;;11.88;72.61
74079;BME280;62437;51.544;-3.276;2023-07-09T00:24:27;101130.23;;;11.87;73.01
74079;BME280;62437;51.544;-3.276;2023-07-09T00:26:52;101126.94;;;11.90;72.60
74079;BME280;62437;51.544;-3.276;2023-07-09T00:29:18;101126.19;;;11.78;72.48
74079;BME280;62437;51.544;-3.276;2023-07-09T00:31:43;101122.69;;;11.68;72.30
74079;BME280;62437;51.544;-3.276;2023-07-09T00:34:09;101126.82;;;11.92;72.28
74079;BME280;62437;51.544;-3.276;2023-07-09T00:36:35;101133.52;;;11.86;72.52
74079;BME280;62437;51.544;-3.276;2023-07-09T00:39:00;101133.94;;;11.67;72.50
74079;BME280;62437;51.544;-3.276;2023-07-09T00:41:26;101138.15;;;11.84;72.49
74079;BME280;62437;51.544;-3.276;2023-07-09T00:43:52;101136.05;;;11.81;72.51
74079;BME280;62437;51.544;-3.276;2023-07-09T00:48:43;101136.81;;;11.50;72.85
74079;BME280;62437;51.544;-3.276;2023-07-09T00:51:11;101140.91;;;11.60;72.86
74079;BME280;62437;51.544;-3.276;2023-07-09T00:53:34;101137.13;;;11.48;72.77
74079;BME280;62437;51.544;-3.276;2023-07-09T00:56:02;101142.59;;;11.54;72.68
74079;BME280;62437;51.544;-3.276;2023-07-09T00:58:25;101143.36;;;11.50;72.95
74079;BME280;62437;51.544;-3.276;2023-07-09T01:00:55;101141.01;;;11.49;72.79
74079;BME280;62437;51.544;-3.276;2023-07-09T01:03:23;101147.63;;;11.36;72.98
74079;BME280;62437;51.544;-3.276;2023-07-09T01:05:42;101144.12;;;11.21;72.61
74079;BME280;62437;51.544;-3.276;2023-07-09T01:08:07;101143.64;;;11.49;73.26
74079;BME280;62437;51.544;-3.276;2023-07-09T01:10:34;101141.61;;;11.49;72.74
74079;BME280;62437;51.544;-3.276;2023-07-09T01:12:59;101139.17;;;11.49;73.12
74079;BME280;62437;51.544;-3.276;2023-07-09T01:15:24;101140.67;;;11.15;73.12
74079;BME280;62437;51.544;-3.276;2023-07-09T01:17:50;101137.69;;;11.39;73.56
74079;BME280;62437;51.544;-3.276;2023-07-09T01:20:17;101143.97;;;11.55;72.48
74079;BME280;62437;51.544;-3.276;2023-07-09T01:22:41;101146.38;;;11.39;73.07
74079;BME280;62437;51.544;-3.276;2023-07-09T01:25:08;101144.93;;;11.38;72.64
74079;BME280;62437;51.544;-3.276;2023-07-09T01:27:35;101152.45;;;11.38;73.11
74079;BME280;62437;51.544;-3.276;2023-07-09T01:29:58;101159.37;;;11.52;73.21
74079;BME280;62437;51.544;-3.276;2023-07-09T01:32:24;101154.91;;;11.45;73.08
74079;BME280;62437;51.544;-3.276;2023-07-09T01:34:52;101162.12;;;11.18;73.10
74079;BME280;62437;51.544;-3.276;2023-07-09T01:37:16;101167.05;;;11.10;72.97
74079;BME280;62437;51.544;-3.276;2023-07-09T01:39:41;101164.14;;;11.25;72.99
74079;BME280;62437;51.544;-3.276;2023-07-09T01:42:07;101159.65;;;11.02;72.91
74079;BME280;62437;51.544;-3.276;2023-07-09T01:44:32;101163.37;;;11.26;73.25
74079;BME280;62437;51.544;-3.276;2023-07-09T01:46:57;101160.84;;;11.31;72.96
74079;BME280;62437;51.544;-3.276;2023-07-09T01:49:23;101154.49;;;11.56;73.73
74079;BME280;62437;51.544;-3.276;2023-07-09T01:51:49;101160.26;;;11.19;73.32
74079;BME280;62437;51.544;-3.276;2023-07-09T01:54:14;101155.14;;;11.00;73.12
74079;BME280;62437;51.544;-3.276;2023-07-09T01:56:40;101160.03;;;10.95;73.30
74079;BME280;62437;51.544;-3.276;2023-07-09T01:59:06;101164.85;;;10.99;73.39
74079;BME280;62437;51.544;-3.276;2023-07-09T02:01:31;101166.66;;;11.03;73.85
74079;BME280;62437;51.544;-3.276;2023-07-09T02:03:57;101161.11;;;11.15;72.74
74079;BME280;62437;51.544;-3.276;2023-07-09T02:06:22;101160.52;;;11.12;72.89
74079;BME280;62437;51.544;-3.276;2023-07-09T02:08:48;101155.22;;;10.94;73.05
74079;BME280;62437;51.544;-3.276;2023-07-09T02:11:14;101156.53;;;10.82;73.13
74079;BME280;62437;51.544;-3.276;2023-07-09T02:13:39;101153.58;;;10.89;73.53
74079;BME280;62437;51.544;-3.276;2023-07-09T02:16:05;101154.64;;;11.10;72.58
74079;BME280;62437;51.544;-3.276;2023-07-09T02:18:31;101155.05;;;10.87;73.11
74079;BME280;62437;51.544;-3.276;2023-07-09T02:20:56;101156.16;;;11.31;73.32
74079;BME280;62437;51.544;-3.276;2023-07-09T02:23:27;101162.34;;;11.02;73.29
74079;BME280;62437;51.544;-3.276;2023-07-09T02:25:47;101175.90;;;10.77;73.04
74079;BME280;62437;51.544;-3.276;2023-07-09T02:28:13;101181.62;;;11.15;73.12
74079;BME280;62437;51.544;-3.276;2023-07-09T02:30:39;101185.47;;;10.56;73.18
74079;BME280;62437;51.544;-3.276;2023-07-09T02:33:04;101179.25;;;10.60;73.43
74079;BME280;62437;51.544;-3.276;2023-07-09T02:35:30;101179.88;;;10.89;73.13
74079;BME280;62437;51.544;-3.276;2023-07-09T02:37:56;101176.85;;;11.13;73.32
74079;BME280;62437;51.544;-3.276;2023-07-09T02:40:21;101172.19;;;10.80;73.04
74079;BME280;62437;51.544;-3.276;2023-07-09T02:42:47;101165.53;;;10.66;73.26
74079;BME280;62437;51.544;-3.276;2023-07-09T02:45:13;101159.47;;;10.57;73.70
74079;BME280;62437;51.544;-3.276;2023-07-09T02:47:41;101166.05;;;10.77;73.79
74079;BME280;62437;51.544;-3.276;2023-07-09T02:50:05;101155.47;;;10.73;72.77
74079;BME280;62437;51.544;-3.276;2023-07-09T02:52:30;101145.44;;;10.80;73.55
74079;BME280;62437;51.544;-3.276;2023-07-09T02:54:55;101147.38;;;10.74;72.97
74079;BME280;62437;51.544;-3.276;2023-07-09T02:57:21;101142.13;;;10.68;73.30
74079;BME280;62437;51.544;-3.276;2023-07-09T02:59:46;101139.78;;;11.00;72.36
74079;BME280;62437;51.544;-3.276;2023-07-09T03:02:12;101150.34;;;11.05;72.62
74079;BME280;62437;51.544;-3.276;2023-07-09T03:04:38;101143.50;;;10.82;72.53
74079;BME280;62437;51.544;-3.276;2023-07-09T03:07:04;101142.10;;;10.67;73.34
74079;BME280;62437;51.544;-3.276;2023-07-09T03:09:30;101138.44;;;10.53;73.27
74079;BME280;62437;51.544;-3.276;2023-07-09T03:11:55;101145.67;;;10.57;73.38
74079;BME280;62437;51.544;-3.276;2023-07-09T03:14:20;101150.91;;;10.80;73.39
74079;BME280;62437;51.544;-3.276;2023-07-09T03:16:46;101149.61;;;10.66;73.06
74079;BME280;62437;51.544;-3.276;2023-07-09T03:19:12;101166.87;;;10.65;72.99
74079;BME280;62437;51.544;-3.276;2023-07-09T03:21:37;101174.31;;;10.90;73.03
74079;BME280;62437;51.544;-3.276;2023-07-09T03:24:04;101165.64;;;10.52;73.23
74079;BME280;62437;51.544;-3.276;2023-07-09T03:26:28;101154.04;;;10.60;73.58
74079;BME280;62437;51.544;-3.276;2023-07-09T03:28:55;101153.68;;;10.59;73.24
74079;BME280;62437;51.544;-3.276;2023-07-09T03:31:20;101158.00;;;10.24;73.57
74079;BME280;62437;51.544;-3.276;2023-07-09T03:33:47;101166.62;;;10.61;73.56
74079;BME280;62437;51.544;-3.276;2023-07-09T03:36:11;101161.40;;;10.42;73.78
74079;BME280;62437;51.544;-3.276;2023-07-09T03:38:37;101149.63;;;10.74;72.64
74079;BME280;62437;51.544;-3.276;2023-07-09T03:41:02;101152.07;;;10.42;72.94
74079;BME280;62437;51.544;-3.276;2023-07-09T03:43:28;101157.97;;;11.06;72.68
74079;BME280;62437;51.544;-3.276;2023-07-09T03:46:02;101156.97;;;10.41;72.46
74079;BME280;62437;51.544;-3.276;2023-07-09T03:48:24;101163.93;;;10.70;73.88
74079;BME280;62437;51.544;-3.276;2023-07-09T03:50:46;101169.04;;;10.68;74.46
74079;BME280;62437;51.544;-3.276;2023-07-09T03:53:11;101175.94;;;10.62;74.22
74079;BME280;62437;51.544;-3.276;2023-07-09T03:55:36;101166.01;;;10.95;73.43
74079;BME280;62437;51.544;-3.276;2023-07-09T03:58:02;101162.14;;;10.57;72.83
74079;BME280;62437;51.544;-3.276;2023-07-09T04:00:27;101159.77;;;10.63;73.17
74079;BME280;62437;51.544;-3.276;2023-07-09T04:02:53;101158.83;;;10.62;73.74
74079;BME280;62437;51.544;-3.276;2023-07-09T04:05:19;101155.05;;;10.47;72.88
74079;BME280;62437;51.544;-3.276;2023-07-09T04:07:44;101164.34;;;10.94;72.98
74079;BME280;62437;51.544;-3.276;2023-07-09T04:10:11;101167.78;;;11.12;72.71
74079;BME280;62437;51.544;-3.276;2023-07-09T04:12:36;101172.10;;;10.86;73.45
74079;BME280;62437;51.544;-3.276;2023-07-09T04:15:02;101166.95;;;11.17;73.09
74079;BME280;62437;51.544;-3.276;2023-07-09T04:17:27;101161.34;;;10.71;72.83
74079;BME280;62437;51.544;-3.276;2023-07-09T04:19:52;101156.43;;;10.64;73.13
74079;BME280;62437;51.544;-3.276;2023-07-09T04:22:18;101167.16;;;10.98;73.40
74079;BME280;62437;51.544;-3.276;2023-07-09T04:24:44;101168.18;;;10.62;73.75
74079;BME280;62437;51.544;-3.276;2023-07-09T04:27:11;101173.31;;;10.67;73.57
74079;BME280;62437;51.544;-3.276;2023-07-09T04:29:35;101164.83;;;11.19;73.51
74079;BME280;62437;51.544;-3.276;2023-07-09T04:32:02;101157.42;;;10.46;72.78
74079;BME280;62437;51.544;-3.276;2023-07-09T04:34:26;101158.44;;;11.12;73.17
74079;BME280;62437;51.544;-3.276;2023-07-09T04:36:52;101153.22;;;10.63;73.12
74079;BME280;62437;51.544;-3.276;2023-07-09T04:39:17;101153.55;;;10.97;72.84
74079;BME280;62437;51.544;-3.276;2023-07-09T04:41:43;101154.75;;;10.46;73.25
74079;BME280;62437;51.544;-3.276;2023-07-09T04:44:09;101167.00;;;10.64;73.32
74079;BME280;62437;51.544;-3.276;2023-07-09T04:46:34;101166.61;;;10.82;72.04
74079;BME280;62437;51.544;-3.276;2023-07-09T04:49:00;101165.83;;;10.50;72.94
74079;BME280;62437;51.544;-3.276;2023-07-09T04:51:26;101172.81;;;10.51;72.97
74079;BME280;62437;51.544;-3.276;2023-07-09T04:53:51;101174.63;;;10.65;73.67
74079;BME280;62437;51.544;-3.276;2023-07-09T04:56:17;101170.75;;;10.44;73.01
74079;BME280;62437;51.544;-3.276;2023-07-09T04:58:43;101167.40;;;10.96;72.93
74079;BME280;62437;51.544;-3.276;2023-07-09T05:01:08;101167.75;;;10.73;73.56
74079;BME280;62437;51.544;-3.276;2023-07-09T05:03:34;101164.73;;;10.37;72.72
74079;BME280;62437;51.544;-3.276;2023-07-09T05:05:59;101159.74;;;10.72;73.68
74079;BME280;62437;51.544;-3.276;2023-07-09T05:08:25;101159.56;;;10.76;73.69
74079;BME280;62437;51.544;-3.276;2023-07-09T05:10:52;101157.02;;;10.32;73.92
74079;BME280;62437;51.544;-3.276;2023-07-09T05:13:17;101156.03;;;10.86;73.77
74079;BME280;62437;51.544;-3.276;2023-07-09T05:15:43;101155.79;;;10.80;73.36
74079;BME280;62437;51.544;-3.276;2023-07-09T05:18:08;101153.48;;;10.37;73.78
74079;BME280;62437;51.544;-3.276;2023-07-09T05:20:33;101156.35;;;10.98;73.88
74079;BME280;62437;51.544;-3.276;2023-07-09T05:22:59;101157.22;;;10.38;73.54
74079;BME280;62437;51.544;-3.276;2023-07-09T05:25:25;101161.56;;;10.44;73.70
74079;BME280;62437;51.544;-3.276;2023-07-09T05:27:50;101165.90;;;10.32;73.71
74079;BME280;62437;51.544;-3.276;2023-07-09T05:30:16;101167.58;;;10.61;73.78
74079;BME280;62437;51.544;-3.276;2023-07-09T05:32:41;101166.01;;;10.47;74.17
74079;BME280;62437;51.544;-3.276;2023-07-09T05:35:08;101158.93;;;10.95;74.02
74079;BME280;62437;51.544;-3.276;2023-07-09T05:37:33;101160.73;;;10.47;74.33
74079;BME280;62437;51.544;-3.276;2023-07-09T05:39:58;101163.12;;;10.60;74.89
74079;BME280;62437;51.544;-3.276;2023-07-09T05:42:24;101163.76;;;10.85;74.03
74079;BME280;62437;51.544;-3.276;2023-07-09T05:44:50;101172.52;;;10.73;73.84
74079;BME280;62437;51.544;-3.276;2023-07-09T05:47:15;101174.45;;;10.59;74.25
74079;BME280;62437;51.544;-3.276;2023-07-09T05:49:41;101175.02;;;10.99;73.12
74079;BME280;62437;51.544;-3.276;2023-07-09T05:52:07;101184.00;;;10.71;72.67
74079;BME280;62437;51.544;-3.276;2023-07-09T05:54:32;101190.73;;;10.64;71.60
74079;BME280;62437;51.544;-3.276;2023-07-09T05:56:58;101189.80;;;10.58;71.98
74079;BME280;62437;51.544;-3.276;2023-07-09T05:59:23;101191.09;;;10.60;72.43
74079;BME280;62437;51.544;-3.276;2023-07-09T06:01:49;101191.48;;;10.74;72.76
74079;BME280;62437;51.544;-3.276;2023-07-09T06:04:15;101184.48;;;10.66;73.42
74079;BME280;62437;51.544;-3.276;2023-07-09T06:06:41;101193.40;;;10.26;72.93
74079;BME280;62437;51.544;-3.276;2023-07-09T06:09:06;101202.42;;;10.85;74.00
74079;BME280;62437;51.544;-3.276;2023-07-09T06:11:31;101203.44;;;11.19;73.67
74079;BME280;62437;51.544;-3.276;2023-07-09T06:13:57;101204.11;;;10.90;74.14
74079;BME280;62437;51.544;-3.276;2023-07-09T06:16:22;101205.83;;;11.37;71.68
74079;BME280;62437;51.544;-3.276;2023-07-09T06:18:48;101207.59;;;11.43;72.27
74079;BME280;62437;51.544;-3.276;2023-07-09T06:21:14;101205.37;;;11.35;72.21
74079;BME280;62437;51.544;-3.276;2023-07-09T06:23:40;101203.97;;;11.06;71.58
74079;BME280;62437;51.544;-3.276;2023-07-09T06:26:05;101201.47;;;11.22;72.61
74079;BME280;62437;51.544;-3.276;2023-07-09T06:28:31;101196.36;;;11.25;73.26
74079;BME280;62437;51.544;-3.276;2023-07-09T06:30:57;101191.53;;;11.62;73.74
74079;BME280;62437;51.544;-3.276;2023-07-09T06:33:23;101191.77;;;11.04;72.89
74079;BME280;62437;51.544;-3.276;2023-07-09T06:35:49;101193.11;;;10.90;73.87
74079;BME280;62437;51.544;-3.276;2023-07-09T06:38:13;101196.92;;;11.60;75.50
74079;BME280;62437;51.544;-3.276;2023-07-09T06:40:39;101205.16;;;11.79;74.39
74079;BME280;62437;51.544;-3.276;2023-07-09T06:43:05;101205.76;;;12.17;74.36
74079;BME280;62437;51.544;-3.276;2023-07-09T06:45:30;101201.87;;;12.33;73.29
74079;BME280;62437;51.544;-3.276;2023-07-09T06:47:56;101200.97;;;11.63;72.32
74079;BME280;62437;51.544;-3.276;2023-07-09T06:50:21;101199.51;;;11.85;73.62
74079;BME280;62437;51.544;-3.276;2023-07-09T06:52:47;101203.24;;;11.57;72.79
74079;BME280;62437;51.544;-3.276;2023-07-09T06:55:13;101204.56;;;11.56;73.14
74079;BME280;62437;51.544;-3.276;2023-07-09T06:57:38;101213.58;;;11.85;72.54
74079;BME280;62437;51.544;-3.276;2023-07-09T07:00:05;101219.28;;;11.63;72.04
74079;BME280;62437;51.544;-3.276;2023-07-09T07:02:29;101218.01;;;11.68;72.18
74079;BME280;62437;51.544;-3.276;2023-07-09T07:04:55;101215.65;;;11.76;72.51
74079;BME280;62437;51.544;-3.276;2023-07-09T07:07:20;101215.35;;;11.89;72.38
74079;BME280;62437;51.544;-3.276;2023-07-09T07:09:46;101211.38;;;12.33;71.74
74079;BME280;62437;51.544;-3.276;2023-07-09T07:14:37;101212.95;;;12.38;71.28
74079;BME280;62437;51.544;-3.276;2023-07-09T07:17:03;101210.88;;;12.22;72.81
74079;BME280;62437;51.544;-3.276;2023-07-09T07:19:28;101209.42;;;12.26;73.09
74079;BME280;62437;51.544;-3.276;2023-07-09T07:21:54;101210.79;;;12.54;72.02
74079;BME280;62437;51.544;-3.276;2023-07-09T07:24:20;101212.02;;;12.91;71.14
74079;BME280;62437;51.544;-3.276;2023-07-09T07:26:45;101210.54;;;13.07;70.81
74079;BME280;62437;51.544;-3.276;2023-07-09T07:29:11;101217.92;;;13.44;70.71
74079;BME280;62437;51.544;-3.276;2023-07-09T07:31:36;101214.57;;;13.07;69.00
74079;BME280;62437;51.544;-3.276;2023-07-09T07:34:02;101214.26;;;13.57;67.56
74079;BME280;62437;51.544;-3.276;2023-07-09T07:36:27;101211.43;;;13.62;68.25
74079;BME280;62437;51.544;-3.276;2023-07-09T07:38:53;101206.46;;;13.58;67.65
74079;BME280;62437;51.544;-3.276;2023-07-09T07:41:18;101205.70;;;13.51;68.72
74079;BME280;62437;51.544;-3.276;2023-07-09T07:43:44;101202.07;;;13.63;68.69
74079;BME280;62437;51.544;-3.276;2023-07-09T07:46:10;101204.37;;;13.77;68.54
74079;BME280;62437;51.544;-3.276;2023-07-09T07:48:35;101206.13;;;13.75;67.17
74079;BME280;62437;51.544;-3.276;2023-07-09T07:51:01;101205.33;;;14.09;68.93
74079;BME280;62437;51.544;-3.276;2023-07-09T07:53:26;101198.80;;;14.02;69.19
74079;BME280;62437;51.544;-3.276;2023-07-09T07:55:52;101201.15;;;15.73;65.21
74079;BME280;62437;51.544;-3.276;2023-07-09T07:58:17;101198.01;;;15.16;62.90
74079;BME280;62437;51.544;-3.276;2023-07-09T08:00:43;101197.53;;;14.39;65.27
74079;BME280;62437;51.544;-3.276;2023-07-09T08:03:09;101197.32;;;14.68;67.63
74079;BME280;62437;51.544;-3.276;2023-07-09T08:05:34;101197.83;;;15.40;65.92
74079;BME280;62437;51.544;-3.276;2023-07-09T08:08:00;101195.11;;;16.92;59.63
74079;BME280;62437;51.544;-3.276;2023-07-09T08:10:25;101191.96;;;17.91;53.92
74079;BME280;62437;51.544;-3.276;2023-07-09T08:12:51;101195.32;;;17.89;54.94
74079;BME280;62437;51.544;-3.276;2023-07-09T08:15:17;101199.69;;;18.09;53.72
74079;BME280;62437;51.544;-3.276;2023-07-09T08:17:42;101195.40;;;16.87;57.56
74079;BME280;62437;51.544;-3.276;2023-07-09T08:20:08;101194.01;;;17.43;56.66
74079;BME280;62437;51.544;-3.276;2023-07-09T08:22:33;101193.44;;;18.12;54.62
74079;BME280;62437;51.544;-3.276;2023-07-09T08:24:59;101197.90;;;15.86;60.28
74079;BME280;62437;51.544;-3.276;2023-07-09T08:27:24;101202.23;;;16.74;58.31
74079;BME280;62437;51.544;-3.276;2023-07-09T08:29:50;101202.13;;;16.61;58.46
74079;BME280;62437;51.544;-3.276;2023-07-09T08:32:15;101207.27;;;15.39;61.91
74079;BME280;62437;51.544;-3.276;2023-07-09T08:34:41;101209.02;;;15.73;61.93
74079;BME280;62437;51.544;-3.276;2023-07-09T08:37:08;101206.88;;;17.58;56.05
74079;BME280;62437;51.544;-3.276;2023-07-09T08:39:32;101213.44;;;17.94;55.59
74079;BME280;62437;51.544;-3.276;2023-07-09T08:42:00;101208.78;;;16.08;59.71
74079;BME280;62437;51.544;-3.276;2023-07-09T08:44:39;101208.00;;;15.37;63.23
74079;BME280;62437;51.544;-3.276;2023-07-09T08:46:57;101206.51;;;18.36;54.58
74079;BME280;62437;51.544;-3.276;2023-07-09T08:49:17;101204.71;;;17.65;56.95
74079;BME280;62437;51.544;-3.276;2023-07-09T08:51:42;101200.94;;;15.58;61.59
74079;BME280;62437;51.544;-3.276;2023-07-09T08:54:12;101200.70;;;17.52;57.81
74079;BME280;62437;51.544;-3.276;2023-07-09T08:56:32;101201.34;;;18.85;51.87
74079;BME280;62437;51.544;-3.276;2023-07-09T08:58:59;101198.29;;;17.12;56.30
74079;BME280;62437;51.544;-3.276;2023-07-09T09:01:26;101200.60;;;16.49;58.85
74079;BME280;62437;51.544;-3.276;2023-07-09T09:03:49;101198.72;;;16.45;60.50
74079;BME280;62437;51.544;-3.276;2023-07-09T09:06:15;101200.20;;;17.38;56.03
74079;BME280;62437;51.544;-3.276;2023-07-09T09:08:40;101201.18;;;18.57;52.57
74079;BME280;62437;51.544;-3.276;2023-07-09T09:11:11;101203.71;;;16.71;59.83
74079;BME280;62437;51.544;-3.276;2023-07-09T09:13:30;101205.29;;;18.53;54.13
74079;BME280;62437;51.544;-3.276;2023-07-09T09:15:57;101203.51;;;19.28;52.61
74079;BME280;62437;51.544;-3.276;2023-07-09T09:18:23;101195.78;;;19.90;48.81
74079;BME280;62437;51.544;-3.276;2023-07-09T09:20:51;101203.02;;;18.88;51.90
74079;BME280;62437;51.544;-3.276;2023-07-09T09:23:14;101203.35;;;18.18;57.53
74079;BME280;62437;51.544;-3.276;2023-07-09T09:25:42;101202.65;;;17.65;58.41
74079;BME280;62437;51.544;-3.276;2023-07-09T09:28:04;101199.23;;;17.71;60.35
74079;BME280;62437;51.544;-3.276;2023-07-09T09:30:30;101196.41;;;19.18;52.61
74079;BME280;62437;51.544;-3.276;2023-07-09T09:32:55;101204.54;;;18.25;56.16
74079;BME280;62437;51.544;-3.276;2023-07-09T09:35:26;101202.11;;;18.51;53.68
74079;BME280;62437;51.544;-3.276;2023-07-09T09:37:52;101200.12;;;16.72;57.77
74079;BME280;62437;51.544;-3.276;2023-07-09T09:40:11;101202.63;;;17.03;58.62
74079;BME280;62437;51.544;-3.276;2023-07-09T09:42:38;101204.10;;;17.44;57.95
74079;BME280;62437;51.544;-3.276;2023-07-09T09:45:02;101198.41;;;18.77;55.30
74079;BME280;62437;51.544;-3.276;2023-07-09T09:47:28;101194.56;;;17.61;56.43
74079;BME280;62437;51.544;-3.276;2023-07-09T09:49:53;101188.26;;;17.02;58.10
74079;BME280;62437;51.544;-3.276;2023-07-09T09:52:19;101196.41;;;17.78;54.50
74079;BME280;62437;51.544;-3.276;2023-07-09T09:54:50;101195.00;;;17.94;56.50
74079;BME280;62437;51.544;-3.276;2023-07-09T09:57:19;101191.96;;;18.14;55.56
74079;BME280;62437;51.544;-3.276;2023-07-09T09:59:36;101198.19;;;19.63;51.95
74079;BME280;62437;51.544;-3.276;2023-07-09T10:02:05;101196.84;;;18.42;54.60
74079;BME280;62437;51.544;-3.276;2023-07-09T10:04:27;101191.04;;;18.74;53.94
74079;BME280;62437;51.544;-3.276;2023-07-09T10:06:56;101190.56;;;19.75;51.35
74079;BME280;62437;51.544;-3.276;2023-07-09T10:09:27;101197.14;;;19.96;51.81
74079;BME280;62437;51.544;-3.276;2023-07-09T10:11:46;101195.30;;;18.80;53.52
74079;BME280;62437;51.544;-3.276;2023-07-09T10:14:18;101183.81;;;19.30;53.73
74079;BME280;62437;51.544;-3.276;2023-07-09T10:16:38;101177.19;;;18.81;53.31
74079;BME280;62437;51.544;-3.276;2023-07-09T10:19:07;101181.63;;;19.58;52.46
74079;BME280;62437;51.544;-3.276;2023-07-09T10:21:30;101186.47;;;18.34;54.71
74079;BME280;62437;51.544;-3.276;2023-07-09T10:23:58;101186.70;;;18.89;54.76
74079;BME280;62437;51.544;-3.276;2023-07-09T10:26:21;101177.16;;;19.15;53.52
74079;BME280;62437;51.544;-3.276;2023-07-09T10:28:57;101179.80;;;19.30;54.06
74079;BME280;62437;51.544;-3.276;2023-07-09T10:31:13;101182.12;;;19.17;52.86
74079;BME280;62437;51.544;-3.276;2023-07-09T10:33:53;101182.08;;;18.66;55.22
74079;BME280;62437;51.544;-3.276;2023-07-09T10:36:06;101178.29;;;19.22;54.32
74079;BME280;62437;51.544;-3.276;2023-07-09T10:38:37;101172.24;;;17.93;54.27
74079;BME280;62437;51.544;-3.276;2023-07-09T10:40:57;101170.51;;;18.28;54.51
74079;BME280;62437;51.544;-3.276;2023-07-09T10:43:30;101170.93;;;19.51;54.28
74079;BME280;62437;51.544;-3.276;2023-07-09T10:45:44;101178.95;;;18.63;55.82
74079;BME280;62437;51.544;-3.276;2023-07-09T10:48:12;101181.75;;;18.26;55.49
74079;BME280;62437;51.544;-3.276;2023-07-09T10:50:34;101173.52;;;18.65;56.01
74079;BME280;62437;51.544;-3.276;2023-07-09T10:53:03;101166.29;;;18.92;54.76
74079;BME280;62437;51.544;-3.276;2023-07-09T10:55:29;101169.69;;;19.12;54.39
74079;BME280;62437;51.544;-3.276;2023-07-09T10:57:54;101176.93;;;19.11;54.37
74079;BME280;62437;51.544;-3.276;2023-07-09T11:00:17;101178.54;;;19.34;53.46
74079;BME280;62437;51.544;-3.276;2023-07-09T11:02:39;101171.60;;;18.68;53.04
74079;BME280;62437;51.544;-3.276;2023-07-09T11:05:07;101181.47;;;17.82;56.37
74079;BME280;62437;51.544;-3.276;2023-07-09T11:07:32;101180.45;;;19.37;53.04
74079;BME280;62437;51.544;-3.276;2023-07-09T11:09:58;101180.31;;;19.11;52.78
74079;BME280;62437;51.544;-3.276;2023-07-09T11:12:29;101184.77;;;19.16;53.73
74079;BME280;62437;51.544;-3.276;2023-07-09T11:14:51;101183.76;;;19.43;53.09
74079;BME280;62437;51.544;-3.276;2023-07-09T11:17:15;101189.51;;;18.00;55.69
74079;BME280;62437;51.544;-3.276;2023-07-09T11:19:42;101183.13;;;18.03;54.10
74079;BME280;62437;51.544;-3.276;2023-07-09T11:22:12;101181.21;;;18.78;54.00
74079;BME280;62437;51.544;-3.276;2023-07-09T11:24:33;101179.23;;;18.01;57.46
74079;BME280;62437;51.544;-3.276;2023-07-09T11:26:55;101174.56;;;18.41;55.83
74079;BME280;62437;51.544;-3.276;2023-07-09T11:29:24;101170.32;;;18.25;56.87
74079;BME280;62437;51.544;-3.276;2023-07-09T11:31:46;101168.09;;;19.23;54.21
74079;BME280;62437;51.544;-3.276;2023-07-09T11:34:17;101170.89;;;17.27;56.39
74079;BME280;62437;51.544;-3.276;2023-07-09T11:36:48;101171.54;;;17.95;56.31
74079;BME280;62437;51.544;-3.276;2023-07-09T11:39:03;101165.92;;;18.80;54.20
74079;BME280;62437;51.544;-3.276;2023-07-09T11:41:37;101166.81;;;18.22;54.13
74079;BME280;62437;51.544;-3.276;2023-07-09T11:44:05;101165.00;;;17.98;55.87
74079;BME280;62437;51.544;-3.276;2023-07-09T11:46:24;101164.28;;;18.73;53.23
74079;BME280;62437;51.544;-3.276;2023-07-09T11:48:45;101170.47;;;17.67;55.81
74079;BME280;62437;51.544;-3.276;2023-07-09T11:51:16;101168.62;;;19.38;53.47
74079;BME280;62437;51.544;-3.276;2023-07-09T11:53:42;101167.02;;;19.57;52.78
74079;BME280;62437;51.544;-3.276;2023-07-09T11:56:02;101168.31;;;18.41;53.88
74079;BME280;62437;51.544;-3.276;2023-07-09T11:58:27;101165.67;;;18.80;54.37
74079;BME280;62437;51.544;-3.276;2023-07-09T12:00:55;101167.02;;;18.13;54.84
74079;BME280;62437;51.544;-3.276;2023-07-09T12:03:21;101168.69;;;18.34;57.34
74079;BME280;62437;51.544;-3.276;2023-07-09T12:05:49;101173.29;;;17.58;56.75
74079;BME280;62437;51.544;-3.276;2023-07-09T12:08:14;101166.14;;;18.11;54.64
74079;BME280;62437;51.544;-3.276;2023-07-09T12:10:36;101160.11;;;20.24;52.11
74079;BME280;62437;51.544;-3.276;2023-07-09T12:13:01;101159.99;;;19.08;54.01
74079;BME280;62437;51.544;-3.276;2023-07-09T12:15:27;101149.16;;;18.60;55.68
74079;BME280;62437;51.544;-3.276;2023-07-09T12:17:55;101147.86;;;18.20;56.04
74079;BME280;62437;51.544;-3.276;2023-07-09T12:20:17;101142.12;;;19.36;53.43
74079;BME280;62437;51.544;-3.276;2023-07-09T12:22:44;101136.78;;;20.82;51.18
74079;BME280;62437;51.544;-3.276;2023-07-09T12:25:19;101139.10;;;20.56;51.25
74079;BME280;62437;51.544;-3.276;2023-07-09T12:27:34;101134.02;;;19.20;53.33
74079;BME280;62437;51.544;-3.276;2023-07-09T12:29:59;101126.97;;;19.84;52.76
74079;BME280;62437;51.544;-3.276;2023-07-09T12:32:25;101122.92;;;20.23;53.50
74079;BME280;62437;51.544;-3.276;2023-07-09T12:34:51;101114.72;;;20.77;52.83